Terminal Aerodrome Forecast
Issued by NWS Shreveport, LA

Home | Current Version | Previous Version | Text Only | Print | Product List | Glossary On
Versions: 1 2 3 4 5 6 7 8 9 10 11 12
590
FTUS44 KSHV 210520
TAFLFK
TAF
KLFK 210520Z 2106/2206 15003KT P6SM SKC
     FM211000 14003KT P6SM SCT030 BKN250
     FM211200 14004KT P6SM BKN030
     FM212200 10005KT P6SM OVC025
     FM220400 02005KT P6SM OVC025=

USA.gov is the U.S. government's official web portal to all federal, state and local government web resources and services.